Time;durP1;ratioP1;P1;durP2;ratioP2;P2;SDS_P1;SDS_P2;PMS_P1;PMS_P2;Temp;Humidity;BMP_temperature;BMP_pressure;BME280_temperature;BME280_humidity;BME280_pressure;Samples;Min_cycle;Max_cycle;Signal;HPM_P1;HPM_P2
2021/06/14 00:00:24;;;;;;;1.10;0.80;;;23.60;99.90;;;;;;5089564;28;20020;-58
2021/06/14 00:02:51;;;;;;;0.80;0.80;;;23.50;99.90;;;;;;5089915;28;20024;-58
2021/06/14 00:05:38;;;;;;;0.70;0.70;;;23.40;99.90;;;;;;5090342;28;20536;-58
2021/06/14 00:08:06;;;;;;;0.60;0.60;;;23.40;99.90;;;;;;5089836;28;20115;-58
2021/06/14 00:10:33;;;;;;;0.70;0.60;;;23.30;99.90;;;;;;5090228;28;20077;-58
2021/06/14 00:13:00;;;;;;;0.70;0.70;;;23.30;99.90;;;;;;5098429;28;20110;-58
2021/06/14 00:15:27;;;;;;;0.65;0.65;;;23.30;99.90;;;;;;5094343;28;20386;-58
2021/06/14 00:17:52;;;;;;;0.60;0.60;;;23.40;99.90;;;;;;5089319;28;20042;-58
2021/06/14 00:20:21;;;;;;;0.73;0.70;;;23.40;99.90;;;;;;5069405;28;20036;-58
2021/06/14 00:22:47;;;;;;;0.85;0.85;;;23.20;99.90;;;;;;5069420;28;20086;-58
2021/06/14 00:25:17;;;;;;;1.20;1.02;;;23.20;99.90;;;;;;5068991;28;20628;-58
2021/06/14 00:27:42;;;;;;;0.80;0.80;;;23.10;99.90;;;;;;5069145;28;20039;-58
2021/06/14 00:30:09;;;;;;;0.80;0.80;;;23.20;99.90;;;;;;5069539;28;20103;-58
2021/06/14 00:32:35;;;;;;;1.25;0.85;;;23.10;99.90;;;;;;5069551;28;20486;-58
2021/06/14 00:35:01;;;;;;;1.00;0.80;;;23.10;99.90;;;;;;5068296;28;20020;-58
2021/06/14 00:37:26;;;;;;;1.00;0.90;;;23.10;99.90;;;;;;5069351;28;20071;-58
2021/06/14 00:39:52;;;;;;;0.70;0.70;;;23.00;99.90;;;;;;5069262;28;20070;-58
2021/06/14 00:42:18;;;;;;;0.70;0.70;;;22.90;99.90;;;;;;5069863;28;20032;-58
2021/06/14 00:44:43;;;;;;;1.20;1.10;;;22.60;99.90;;;;;;5069324;28;20071;-58
2021/06/14 00:47:09;;;;;;;0.70;0.70;;;22.60;99.90;;;;;;5069334;28;20020;-58
2021/06/14 00:49:35;;;;;;;1.20;1.10;;;22.60;99.90;;;;;;5067737;28;20076;-58
2021/06/14 00:52:01;;;;;;;1.50;1.10;;;22.70;99.90;;;;;;5067648;28;20024;-58
2021/06/14 00:54:27;;;;;;;1.05;1.05;;;22.80;99.90;;;;;;5069998;28;20032;-58
2021/06/14 00:56:53;;;;;;;1.05;1.05;;;22.80;99.90;;;;;;5087811;28;20036;-58
2021/06/14 00:59:19;;;;;;;0.82;0.82;;;22.70;99.90;;;;;;5088619;28;20089;-58
2021/06/14 01:01:44;;;;;;;2.03;1.15;;;22.60;99.90;;;;;;5087680;28;20032;-58
2021/06/14 01:04:10;;;;;;;0.80;0.80;;;22.50;99.90;;;;;;5087669;28;20757;-58
2021/06/14 01:06:36;;;;;;;0.80;0.80;;;22.30;99.90;;;;;;5087615;28;20406;-58
2021/06/14 01:09:03;;;;;;;1.00;0.90;;;22.20;99.90;;;;;;5087811;28;20031;-58
2021/06/14 01:11:53;;;;;;;1.13;1.02;;;22.40;99.90;;;;;;5088282;28;20032;-58
2021/06/14 01:14:38;;;;;;;1.30;0.93;;;22.20;99.90;;;;;;5088610;28;20021;-58
2021/06/14 01:17:17;;;;;;;1.45;1.05;;;22.20;99.90;;;;;;5087846;28;20037;-58
2021/06/14 01:20:08;;;;;;;0.88;0.88;;;22.00;99.90;;;;;;5087089;28;20032;-58
2021/06/14 01:23:20;;;;;;;0.90;0.90;;;21.90;99.90;;;;;;5087750;28;20485;-58
2021/06/14 01:26:00;;;;;;;1.10;1.00;;;21.90;99.90;;;;;;5084708;28;20036;-58
2021/06/14 01:28:29;;;;;;;1.08;0.98;;;21.80;99.90;;;;;;5087841;28;20112;-58
2021/06/14 01:30:56;;;;;;;1.25;1.05;;;21.70;99.90;;;;;;5087785;28;20028;-58
2021/06/14 01:33:25;;;;;;;1.02;0.80;;;21.70;99.90;;;;;;5087301;28;20028;-58
2021/06/14 01:35:54;;;;;;;1.00;0.90;;;21.90;99.90;;;;;;5086456;28;20028;-58
2021/06/14 01:38:23;;;;;;;0.77;0.77;;;21.70;99.90;;;;;;5087033;28;20016;-58
2021/06/14 01:40:52;;;;;;;1.05;0.90;;;21.70;99.90;;;;;;5086804;28;20031;-58
2021/06/14 01:43:21;;;;;;;1.98;1.08;;;21.50;99.90;;;;;;5087116;28;20020;-58
2021/06/14 01:45:51;;;;;;;0.75;0.75;;;21.50;99.90;;;;;;5086771;28;20624;-58
2021/06/14 01:48:19;;;;;;;1.00;1.00;;;21.50;99.90;;;;;;5084145;28;103912;-59
2021/06/14 01:50:45;;;;;;;2.55;0.90;;;21.60;99.90;;;;;;5088113;28;20594;-58
2021/06/14 01:53:12;;;;;;;0.98;0.93;;;21.60;99.90;;;;;;5088222;28;20102;-58
2021/06/14 01:55:38;;;;;;;0.80;0.80;;;21.40;99.90;;;;;;5075749;28;20032;-58
2021/06/14 01:58:05;;;;;;;1.25;0.88;;;21.30;99.90;;;;;;5067642;28;20032;-58
2021/06/14 02:00:31;;;;;;;0.90;0.90;;;21.40;99.90;;;;;;5068026;28;20036;-58
2021/06/14 02:02:58;;;;;;;2.05;0.80;;;21.20;99.90;;;;;;5067303;28;20016;-58
2021/06/14 02:05:27;;;;;;;0.98;0.98;;;21.10;99.90;;;;;;5067742;28;20367;-58
2021/06/14 02:07:54;;;;;;;0.90;0.90;;;21.20;99.90;;;;;;5067615;28;20158;-58
2021/06/14 02:10:24;;;;;;;0.85;0.80;;;21.40;99.90;;;;;;5068572;28;20434;-58
2021/06/14 02:12:51;;;;;;;1.00;0.88;;;21.40;99.90;;;;;;5067982;28;20553;-58
2021/06/14 02:15:18;;;;;;;0.98;0.88;;;21.70;99.90;;;;;;5068174;28;20535;-58
2021/06/14 02:17:46;;;;;;;1.20;1.10;;;21.80;99.90;;;;;;5082799;28;20492;-58
2021/06/14 02:20:13;;;;;;;1.20;1.08;;;21.70;99.90;;;;;;5087023;28;20473;-58
2021/06/14 02:22:40;;;;;;;1.10;1.00;;;21.40;99.90;;;;;;5078295;28;20482;-58
2021/06/14 02:25:08;;;;;;;1.20;0.90;;;21.30;99.90;;;;;;5078846;28;20024;-58
2021/06/14 02:27:35;;;;;;;1.00;0.95;;;21.40;99.90;;;;;;5086332;28;20024;-58
2021/06/14 02:30:03;;;;;;;1.20;1.08;;;21.30;99.90;;;;;;5065904;28;20028;-58
2021/06/14 02:32:32;;;;;;;1.25;1.10;;;21.30;99.90;;;;;;5064963;28;20020;-58
2021/06/14 02:34:58;;;;;;;1.73;1.20;;;21.20;99.90;;;;;;5065263;28;20447;-58
2021/06/14 02:37:24;;;;;;;0.90;0.90;;;21.00;99.90;;;;;;5065632;28;20039;-58
2021/06/14 02:39:52;;;;;;;1.27;1.15;;;20.80;99.90;;;;;;5065008;28;20032;-58
2021/06/14 02:42:18;;;;;;;0.75;0.75;;;20.90;99.90;;;;;;5085521;28;20024;-59
2021/06/14 02:44:46;;;;;;;1.08;1.00;;;20.80;99.90;;;;;;5085463;28;20022;-58
2021/06/14 02:47:14;;;;;;;1.08;1.00;;;20.70;99.90;;;;;;5085589;28;20027;-57
2021/06/14 02:49:41;;;;;;;1.20;0.90;;;20.60;99.90;;;;;;5085128;28;20103;-58
2021/06/14 02:52:11;;;;;;;1.00;1.00;;;20.70;99.90;;;;;;5084535;28;20447;-58
2021/06/14 02:54:49;;;;;;;2.15;1.00;;;20.80;99.90;;;;;;5085051;28;20517;-58
2021/06/14 02:57:15;;;;;;;1.60;1.15;;;21.00;99.90;;;;;;5085288;28;20168;-58
2021/06/14 02:59:42;;;;;;;1.25;1.00;;;21.10;99.90;;;;;;5084584;28;20492;-58
2021/06/14 03:02:08;;;;;;;1.02;0.90;;;20.90;99.90;;;;;;5080246;28;20235;-58
2021/06/14 03:04:35;;;;;;;1.15;1.05;;;21.00;99.90;;;;;;5077542;28;20470;-58
2021/06/14 03:07:01;;;;;;;1.23;1.05;;;21.10;99.90;;;;;;5085601;28;20020;-58
2021/06/14 03:09:28;;;;;;;0.68;0.68;;;21.20;99.90;;;;;;5065578;28;20035;-58
2021/06/14 03:11:55;;;;;;;1.20;1.00;;;21.20;99.90;;;;;;5064741;28;20024;-59
2021/06/14 03:14:22;;;;;;;0.90;0.90;;;21.20;99.90;;;;;;5084669;28;20421;-58
2021/06/14 03:16:48;;;;;;;1.48;1.10;;;21.20;99.90;;;;;;5089415;28;20076;-58
2021/06/14 03:19:15;;;;;;;1.27;1.17;;;21.20;99.90;;;;;;5084972;28;20020;-57
2021/06/14 03:21:42;;;;;;;0.70;0.70;;;21.00;99.90;;;;;;5065969;28;20458;-57
2021/06/14 03:24:09;;;;;;;1.95;1.40;;;20.70;99.90;;;;;;5065051;28;20028;-57
2021/06/14 03:26:38;;;;;;;1.10;1.00;;;20.70;99.90;;;;;;5065354;28;20074;-57
2021/06/14 03:29:06;;;;;;;0.82;0.82;;;20.60;99.90;;;;;;5065143;28;20456;-57
2021/06/14 03:31:32;;;;;;;0.80;0.80;;;20.60;99.90;;;;;;5065362;28;20468;-57
2021/06/14 03:33:59;;;;;;;1.00;0.90;;;20.60;99.90;;;;;;5061814;28;20036;-57
2021/06/14 03:36:32;;;;;;;0.95;0.90;;;20.70;99.90;;;;;;5064119;28;20029;-57
2021/06/14 03:38:59;;;;;;;0.90;0.90;;;20.80;99.90;;;;;;5063038;28;20045;-60
2021/06/14 03:41:25;;;;;;;1.17;1.08;;;20.50;99.90;;;;;;5064025;28;20454;-59
2021/06/14 03:43:51;;;;;;;0.88;0.88;;;20.40;99.90;;;;;;5063603;28;20099;-58
2021/06/14 03:46:17;;;;;;;0.73;0.73;;;20.30;99.90;;;;;;5063376;28;20025;-58
2021/06/14 03:48:44;;;;;;;0.90;0.90;;;20.10;99.90;;;;;;5063155;28;20040;-57
2021/06/14 03:51:09;;;;;;;0.70;0.70;;;20.10;99.90;;;;;;5062358;28;20038;-58
2021/06/14 03:53:39;;;;;;;1.33;0.80;;;20.20;99.90;;;;;;5070109;28;20032;-57
2021/06/14 03:56:10;;;;;;;1.25;1.02;;;20.30;99.90;;;;;;5065287;28;20029;-57
2021/06/14 03:58:36;;;;;;;0.93;0.90;;;20.30;99.90;;;;;;5072162;28;20036;-57
2021/06/14 04:01:03;;;;;;;1.02;0.82;;;20.10;99.90;;;;;;5083229;28;20113;-57
2021/06/14 04:03:30;;;;;;;1.25;1.10;;;20.00;99.90;;;;;;5079693;28;20032;-58
2021/06/14 04:05:59;;;;;;;1.10;1.00;;;20.10;99.90;;;;;;5070740;28;20056;-57
2021/06/14 04:08:25;;;;;;;0.95;0.95;;;20.10;99.90;;;;;;5086028;28;20020;-57
2021/06/14 04:10:51;;;;;;;1.10;0.90;;;20.20;99.90;;;;;;5084600;28;20050;-57
2021/06/14 04:13:18;;;;;;;0.90;0.80;;;20.30;99.90;;;;;;5064834;28;20072;-57
2021/06/14 04:15:44;;;;;;;1.70;1.27;;;20.20;99.90;;;;;;5085146;28;20024;-57
2021/06/14 04:18:10;;;;;;;1.08;1.00;;;20.20;99.90;;;;;;5086029;28;20039;-57
2021/06/14 04:20:36;;;;;;;1.17;1.00;;;19.70;99.90;;;;;;5079697;28;20028;-57
2021/06/14 04:23:03;;;;;;;1.27;1.13;;;19.70;99.90;;;;;;5085704;28;20103;-57
2021/06/14 04:25:28;;;;;;;1.00;0.85;;;19.70;99.90;;;;;;5067549;28;20020;-57
2021/06/14 04:27:54;;;;;;;0.65;0.65;;;19.80;99.90;;;;;;5064285;28;20193;-57
2021/06/14 04:30:20;;;;;;;0.80;0.70;;;19.90;99.90;;;;;;5067258;28;20512;-58
2021/06/14 04:32:47;;;;;;;0.77;0.73;;;19.90;99.90;;;;;;5071855;28;20024;-57
2021/06/14 04:35:13;;;;;;;0.80;0.80;;;19.90;99.90;;;;;;5086190;28;20529;-58
2021/06/14 04:37:39;;;;;;;0.80;0.80;;;20.00;99.90;;;;;;5075707;28;20040;-57
2021/06/14 04:40:07;;;;;;;0.80;0.80;;;19.90;99.90;;;;;;5066056;28;20024;-57
2021/06/14 04:42:33;;;;;;;0.77;0.75;;;19.80;99.90;;;;;;5067980;28;20025;-58
2021/06/14 04:44:59;;;;;;;0.80;0.70;;;19.70;99.90;;;;;;5068027;28;20027;-57
2021/06/14 04:47:24;;;;;;;1.10;1.00;;;19.80;99.90;;;;;;5068970;28;20024;-57
2021/06/14 04:49:50;;;;;;;1.40;0.82;;;19.90;99.90;;;;;;5068359;28;20052;-58
2021/06/14 04:52:16;;;;;;;0.98;0.90;;;19.90;99.90;;;;;;5068746;28;20465;-57
2021/06/14 04:54:42;;;;;;;1.52;1.30;;;19.90;99.90;;;;;;5068614;28;20028;-57
2021/06/14 04:57:08;;;;;;;1.73;1.13;;;19.90;99.90;;;;;;5072928;28;20688;-57
2021/06/14 04:59:34;;;;;;;0.75;0.75;;;20.00;99.90;;;;;;5067497;28;20031;-58
2021/06/14 05:02:00;;;;;;;2.17;0.90;;;20.10;99.90;;;;;;5080087;28;20032;-57
2021/06/14 05:04:26;;;;;;;0.80;0.80;;;20.10;99.90;;;;;;5087702;28;20483;-58
2021/06/14 05:06:52;;;;;;;1.10;1.00;;;20.20;99.90;;;;;;5070872;28;20028;-58
2021/06/14 05:09:18;;;;;;;1.00;0.90;;;20.30;99.90;;;;;;5068973;28;20031;-58
2021/06/14 05:11:44;;;;;;;0.80;0.80;;;20.30;99.90;;;;;;5069107;28;20032;-58
2021/06/14 05:14:09;;;;;;;0.95;0.82;;;20.30;99.90;;;;;;5067743;28;20418;-58
2021/06/14 05:16:35;;;;;;;1.02;0.93;;;20.30;99.90;;;;;;5068161;28;20032;-57
2021/06/14 05:19:00;;;;;;;0.82;0.82;;;20.20;99.90;;;;;;5068287;28;20410;-56
2021/06/14 05:21:26;;;;;;;0.90;0.85;;;20.20;99.90;;;;;;5068705;28;20021;-56
2021/06/14 05:23:52;;;;;;;0.93;0.80;;;20.20;99.90;;;;;;5068324;28;20107;-56
2021/06/14 05:26:18;;;;;;;0.73;0.73;;;20.30;99.90;;;;;;5068422;28;20121;-56
2021/06/14 05:28:44;;;;;;;0.60;0.60;;;20.40;99.90;;;;;;5068999;28;20039;-56
2021/06/14 05:31:10;;;;;;;0.77;0.77;;;20.50;99.90;;;;;;5067666;28;20040;-56
2021/06/14 05:33:37;;;;;;;1.35;0.90;;;20.50;99.90;;;;;;5068271;28;20035;-56
2021/06/14 05:36:03;;;;;;;1.50;0.95;;;20.60;99.90;;;;;;5066276;28;20068;-57
2021/06/14 05:38:28;;;;;;;0.93;0.80;;;20.70;99.90;;;;;;5068673;28;20088;-56
2021/06/14 05:40:54;;;;;;;2.05;0.90;;;20.80;99.90;;;;;;5087909;28;20020;-57
2021/06/14 05:43:20;;;;;;;1.08;0.90;;;20.80;99.90;;;;;;5088233;28;20474;-56
2021/06/14 05:45:46;;;;;;;0.90;0.85;;;20.80;99.90;;;;;;5078589;28;20028;-56
2021/06/14 05:48:11;;;;;;;1.27;0.90;;;20.80;99.90;;;;;;5067858;28;20036;-56
2021/06/14 05:50:37;;;;;;;1.20;1.10;;;21.00;99.90;;;;;;5068108;28;20035;-56
2021/06/14 05:53:03;;;;;;;1.20;1.00;;;20.60;99.90;;;;;;5066099;28;20032;-56
2021/06/14 05:55:29;;;;;;;2.85;1.10;;;20.70;99.90;;;;;;5068000;28;20089;-56
2021/06/14 05:57:56;;;;;;;1.23;0.93;;;20.80;99.90;;;;;;5067749;28;20024;-56
2021/06/14 06:00:22;;;;;;;1.30;1.20;;;20.90;99.90;;;;;;5070213;28;20410;-56
2021/06/14 06:02:48;;;;;;;2.45;0.80;;;20.70;99.90;;;;;;5099861;28;20028;-56
2021/06/14 06:05:14;;;;;;;1.08;0.98;;;20.70;99.90;;;;;;5088586;28;20039;-56
2021/06/14 06:07:40;;;;;;;1.23;1.13;;;20.80;99.90;;;;;;5097354;28;20024;-56
2021/06/14 06:10:08;;;;;;;1.15;0.90;;;20.80;99.90;;;;;;5108375;28;20391;-56
2021/06/14 06:12:34;;;;;;;0.70;0.70;;;21.00;99.90;;;;;;5108292;28;20024;-56
2021/06/14 06:15:01;;;;;;;1.40;0.70;;;21.10;99.90;;;;;;5107700;28;20923;-56
2021/06/14 06:17:28;;;;;;;1.20;0.90;;;21.10;99.90;;;;;;5107953;28;20069;-56
2021/06/14 06:19:54;;;;;;;1.10;0.85;;;21.10;99.90;;;;;;5097535;27;20494;-56
2021/06/14 06:22:20;;;;;;;0.75;0.73;;;21.10;99.90;;;;;;5091329;28;20377;-56
2021/06/14 06:24:45;;;;;;;1.13;0.63;;;21.20;99.90;;;;;;5098062;28;20034;-56
2021/06/14 06:27:11;;;;;;;0.85;0.75;;;21.30;99.90;;;;;;5090520;28;20016;-57
2021/06/14 06:29:37;;;;;;;1.40;0.85;;;21.30;99.90;;;;;;5087551;28;20888;-57
2021/06/14 06:32:03;;;;;;;1.38;0.80;;;21.20;99.90;;;;;;5086727;28;20059;-58
2021/06/14 06:34:29;;;;;;;1.08;0.80;;;21.20;99.90;;;;;;5087247;28;20105;-57
2021/06/14 06:36:54;;;;;;;0.95;0.95;;;21.30;99.90;;;;;;5068687;28;20020;-57
2021/06/14 06:39:20;;;;;;;0.70;0.70;;;21.30;99.90;;;;;;5085534;28;20032;-57
2021/06/14 06:41:46;;;;;;;1.88;0.70;;;21.40;99.90;;;;;;5087475;28;20016;-58
2021/06/14 06:44:12;;;;;;;0.85;0.75;;;21.40;99.90;;;;;;5085822;28;20028;-57
2021/06/14 06:46:39;;;;;;;0.98;0.60;;;21.30;99.90;;;;;;5086902;28;20020;-57
2021/06/14 06:49:04;;;;;;;1.17;0.93;;;21.40;99.90;;;;;;5086525;28;20437;-57
2021/06/14 06:51:30;;;;;;;0.60;0.60;;;21.60;99.90;;;;;;5090509;28;20076;-57
2021/06/14 06:54:17;;;;;;;1.27;0.90;;;21.50;99.90;;;;;;5107214;28;20512;-57
2021/06/14 06:56:44;;;;;;;0.60;0.60;;;21.50;99.90;;;;;;5106637;28;20464;-57
2021/06/14 06:59:11;;;;;;;0.52;0.50;;;21.80;99.90;;;;;;5107065;28;20059;-57
2021/06/14 07:01:38;;;;;;;0.73;0.60;;;21.50;99.90;;;;;;5106888;28;20520;-57
2021/06/14 07:04:04;;;;;;;0.70;0.70;;;21.50;99.90;;;;;;5080652;28;20128;-57
2021/06/14 07:06:30;;;;;;;0.50;0.50;;;21.70;99.90;;;;;;5082282;28;20031;-57
2021/06/14 07:08:59;;;;;;;1.50;0.60;;;21.80;99.90;;;;;;5081383;28;20021;-57
2021/06/14 07:11:26;;;;;;;0.88;0.73;;;21.80;99.90;;;;;;5069369;28;20537;-57
2021/06/14 07:13:52;;;;;;;0.50;0.50;;;21.70;99.90;;;;;;5081711;28;20429;-58
2021/06/14 07:16:18;;;;;;;1.27;0.98;;;21.70;99.90;;;;;;5084672;28;20035;-58
2021/06/14 07:18:44;;;;;;;0.60;0.60;;;21.90;99.90;;;;;;5066545;28;20039;-57
2021/06/14 07:21:10;;;;;;;0.55;0.40;;;22.00;99.90;;;;;;5066191;28;20097;-57
2021/06/14 07:23:36;;;;;;;0.50;0.50;;;22.20;99.90;;;;;;5064906;28;20031;-58
2021/06/14 07:26:02;;;;;;;0.60;0.60;;;22.10;99.90;;;;;;5065873;28;20025;-58
2021/06/14 07:28:28;;;;;;;0.80;0.80;;;22.20;99.90;;;;;;5068053;28;20024;-58
2021/06/14 07:30:54;;;;;;;0.70;0.70;;;22.10;99.90;;;;;;5084599;28;20036;-58
2021/06/14 07:33:19;;;;;;;0.93;0.75;;;22.20;99.90;;;;;;5085854;28;20032;-58
2021/06/14 07:35:45;;;;;;;0.60;0.50;;;22.20;99.90;;;;;;5084654;28;20032;-58
2021/06/14 07:38:12;;;;;;;0.57;0.55;;;22.30;99.90;;;;;;5085255;28;20030;-59
2021/06/14 07:40:39;;;;;;;0.50;0.50;;;22.10;99.90;;;;;;5085809;28;20042;-59
2021/06/14 07:43:09;;;;;;;0.60;0.55;;;22.20;99.90;;;;;;5088475;28;20032;-58
2021/06/14 07:45:35;;;;;;;0.45;0.45;;;22.40;99.90;;;;;;5096718;28;20127;-58
2021/06/14 07:48:01;;;;;;;0.88;0.70;;;22.40;99.90;;;;;;5085293;28;20119;-58
2021/06/14 07:50:27;;;;;;;0.93;0.70;;;22.50;99.90;;;;;;5083647;28;20032;-58
2021/06/14 07:52:53;;;;;;;0.70;0.70;;;22.40;99.90;;;;;;5072809;28;20513;-58
2021/06/14 07:55:18;;;;;;;0.40;0.40;;;22.40;99.90;;;;;;5068723;28;20112;-58
2021/06/14 07:57:44;;;;;;;0.95;0.80;;;22.30;99.90;;;;;;5083724;28;20070;-58
2021/06/14 08:00:11;;;;;;;0.50;0.50;;;22.40;99.90;;;;;;5076690;28;20429;-58
2021/06/14 08:02:39;;;;;;;1.25;0.63;;;22.50;99.90;;;;;;5064365;28;20098;-58
2021/06/14 08:05:06;;;;;;;1.52;0.77;;;22.60;99.90;;;;;;5064354;28;20013;-58
2021/06/14 08:07:33;;;;;;;0.75;0.65;;;22.50;99.90;;;;;;5089778;28;20062;-57
2021/06/14 08:10:03;;;;;;;1.25;0.60;;;22.50;99.90;;;;;;5087466;28;20039;-58
2021/06/14 08:12:31;;;;;;;0.50;0.50;;;22.60;99.90;;;;;;5090364;28;20027;-58
2021/06/14 08:14:57;;;;;;;0.60;0.60;;;22.70;99.90;;;;;;5069867;28;20024;-58
2021/06/14 08:17:24;;;;;;;0.95;0.68;;;22.70;99.90;;;;;;5066915;28;20025;-58
2021/06/14 08:19:53;;;;;;;3.53;0.70;;;22.60;99.90;;;;;;5101410;28;20027;-58
2021/06/14 08:25:03;;;;;;;0.50;0.50;;;22.70;99.90;;;;;;5107239;28;20039;-58
2021/06/14 08:25:24;;;;;;;0.45;0.45;;;22.70;99.90;;;;;;5107712;28;20015;-58
2021/06/14 08:27:50;;;;;;;0.40;0.40;;;22.60;99.90;;;;;;5107158;28;20028;-58
2021/06/14 08:30:18;;;;;;;0.50;0.50;;;22.80;99.90;;;;;;5108013;28;20035;-58
2021/06/14 08:32:45;;;;;;;0.45;0.45;;;23.00;99.90;;;;;;5098001;28;20537;-58
2021/06/14 08:35:14;;;;;;;0.45;0.45;;;23.30;99.90;;;;;;5087067;28;20027;-58
2021/06/14 08:37:41;;;;;;;0.43;0.43;;;23.20;99.90;;;;;;5086948;28;20047;-58
2021/06/14 08:40:08;;;;;;;0.52;0.52;;;23.20;99.90;;;;;;5087059;28;20543;-59
2021/06/14 08:42:34;;;;;;;1.10;0.70;;;23.20;99.90;;;;;;5086991;28;20028;-58
2021/06/14 08:45:01;;;;;;;0.40;0.40;;;23.30;99.90;;;;;;5086334;28;20500;-58
2021/06/14 08:47:29;;;;;;;0.38;0.38;;;23.30;99.90;;;;;;5086553;28;20091;-57
2021/06/14 08:49:56;;;;;;;0.50;0.50;;;23.20;99.90;;;;;;5069826;28;20024;-58
2021/06/14 08:52:23;;;;;;;0.50;0.50;;;23.40;99.90;;;;;;5067680;28;20032;-58
2021/06/14 08:54:51;;;;;;;0.40;0.40;;;23.40;99.90;;;;;;5086492;28;20469;-58
2021/06/14 08:57:17;;;;;;;0.30;0.30;;;23.50;99.90;;;;;;5087238;28;20024;-58
2021/06/14 08:59:43;;;;;;;0.50;0.50;;;23.50;99.90;;;;;;5086296;28;20032;-58
2021/06/14 09:02:09;;;;;;;0.43;0.43;;;23.50;99.90;;;;;;5085966;28;20024;-58
2021/06/14 09:04:36;;;;;;;0.68;0.40;;;23.40;99.90;;;;;;5086508;28;20512;-58
2021/06/14 09:07:03;;;;;;;0.65;0.45;;;23.40;99.90;;;;;;5086426;28;20012;-58
2021/06/14 09:09:31;;;;;;;0.47;0.47;;;23.50;99.90;;;;;;5086187;28;20063;-58
2021/06/14 09:11:59;;;;;;;0.43;0.43;;;23.60;99.90;;;;;;5086149;28;20513;-58
2021/06/14 09:14:27;;;;;;;0.30;0.30;;;23.70;99.90;;;;;;5086139;28;20028;-58
2021/06/14 09:16:57;;;;;;;0.68;0.60;;;24.00;99.90;;;;;;5086189;28;20024;-58
2021/06/14 09:19:41;;;;;;;0.50;0.50;;;24.10;99.90;;;;;;5086367;28;20028;-58
2021/06/14 09:22:13;;;;;;;1.25;0.80;;;23.90;99.90;;;;;;5086011;28;20825;-58
2021/06/14 09:24:39;;;;;;;0.50;0.50;;;23.90;99.90;;;;;;5086074;28;20169;-58
2021/06/14 09:27:05;;;;;;;0.60;0.60;;;23.90;99.90;;;;;;5087120;28;20497;-58
2021/06/14 09:29:30;;;;;;;0.98;0.73;;;23.80;99.90;;;;;;5103819;28;20490;-58
2021/06/14 09:32:01;;;;;;;0.50;0.50;;;24.10;99.90;;;;;;5105697;28;20062;-58
2021/06/14 09:34:36;;;;;;;0.98;0.68;;;24.10;99.90;;;;;;5106250;28;20123;-59
2021/06/14 09:37:04;;;;;;;0.90;0.52;;;24.10;99.90;;;;;;5105962;28;20027;-59
2021/06/14 09:39:37;;;;;;;1.48;0.60;;;24.00;99.90;;;;;;5106116;27;20111;-58
2021/06/14 09:42:19;;;;;;;0.40;0.40;;;24.30;99.90;;;;;;5083142;28;20021;-58
2021/06/14 09:44:46;;;;;;;0.47;0.47;;;24.50;99.90;;;;;;5070672;28;20449;-58
2021/06/14 09:47:13;;;;;;;0.50;0.50;;;24.70;99.90;;;;;;5065473;28;20070;-57
2021/06/14 09:49:41;;;;;;;1.02;0.52;;;24.70;99.90;;;;;;5079849;28;20067;-58
2021/06/14 09:52:19;;;;;;;0.60;0.50;;;24.50;99.90;;;;;;5082551;28;20020;-58
2021/06/14 09:54:44;;;;;;;0.82;0.40;;;24.80;99.90;;;;;;5065543;28;20452;-58
2021/06/14 09:57:10;;;;;;;0.63;0.40;;;24.80;99.90;;;;;;5088692;28;20027;-57
2021/06/14 09:59:44;;;;;;;0.40;0.40;;;24.80;99.90;;;;;;5104436;28;20076;-59
2021/06/14 10:02:17;;;;;;;0.60;0.60;;;24.80;99.90;;;;;;5095369;28;20037;-59
2021/06/14 10:04:53;;;;;;;0.60;0.60;;;24.80;99.90;;;;;;5084791;28;20501;-59
2021/06/14 10:07:20;;;;;;;0.50;0.50;;;24.80;99.90;;;;;;5085073;28;20347;-59
2021/06/14 10:09:51;;;;;;;0.65;0.65;;;25.00;99.90;;;;;;5072898;28;20115;-59
2021/06/14 10:12:24;;;;;;;0.82;0.80;;;25.10;99.90;;;;;;5065270;28;20032;-59
2021/06/14 10:14:55;;;;;;;0.60;0.60;;;24.90;99.90;;;;;;5071639;28;20024;-59
2021/06/14 10:17:39;;;;;;;0.80;0.65;;;25.20;99.90;;;;;;5071778;28;20032;-59
2021/06/14 10:20:09;;;;;;;0.50;0.50;;;25.20;99.90;;;;;;5067039;28;20036;-59
2021/06/14 10:22:36;;;;;;;0.75;0.70;;;25.10;99.90;;;;;;5067638;28;20116;-59
2021/06/14 10:25:02;;;;;;;0.70;0.70;;;25.40;99.90;;;;;;5066896;28;20025;-58
2021/06/14 10:27:28;;;;;;;0.60;0.60;;;25.70;99.90;;;;;;5066890;28;20488;-59
2021/06/14 10:29:54;;;;;;;0.50;0.50;;;25.80;99.90;;;;;;5071458;28;20062;-59
2021/06/14 10:32:20;;;;;;;0.40;0.40;;;25.90;99.90;;;;;;5087231;28;20032;-59
2021/06/14 10:34:49;;;;;;;0.77;0.60;;;25.90;99.90;;;;;;5067449;28;20506;-59
2021/06/14 10:37:15;;;;;;;0.68;0.68;;;25.90;99.90;;;;;;5082309;28;20040;-59
2021/06/14 10:39:45;;;;;;;0.70;0.70;;;25.80;99.90;;;;;;5084513;28;20557;-59
2021/06/14 10:42:12;;;;;;;0.70;0.70;;;26.00;99.90;;;;;;5085817;28;20020;-59
2021/06/14 10:44:38;;;;;;;0.60;0.60;;;26.00;99.90;;;;;;5077121;28;20064;-59
2021/06/14 10:47:08;;;;;;;0.60;0.60;;;26.20;99.90;;;;;;5079580;28;20058;-58
2021/06/14 10:49:34;;;;;;;2.15;0.60;;;26.30;99.90;;;;;;5084681;28;20046;-58
2021/06/14 10:52:02;;;;;;;0.70;0.60;;;26.50;99.90;;;;;;5064238;28;20107;-58
2021/06/14 10:54:43;;;;;;;0.60;0.60;;;26.70;99.90;;;;;;5065147;28;20052;-58
2021/06/14 10:57:10;;;;;;;0.60;0.60;;;26.60;99.90;;;;;;5064958;28;20029;-58
2021/06/14 10:59:41;;;;;;;0.88;0.73;;;26.40;99.90;;;;;;5064766;28;20095;-58
2021/06/14 11:02:09;;;;;;;0.68;0.68;;;26.60;99.90;;;;;;5068724;28;20056;-58
2021/06/14 11:04:35;;;;;;;0.40;0.40;;;26.80;99.90;;;;;;5084505;28;20029;-58
2021/06/14 11:07:02;;;;;;;0.63;0.63;;;26.80;99.90;;;;;;5084535;28;20024;-58
2021/06/14 11:09:44;;;;;;;0.60;0.60;;;26.90;99.90;;;;;;5081736;28;20028;-58
2021/06/14 11:12:23;;;;;;;1.08;0.70;;;27.00;99.90;;;;;;5072712;28;20023;-58
2021/06/14 11:14:49;;;;;;;0.47;0.47;;;27.20;99.90;;;;;;5078753;28;20055;-58
2021/06/14 11:17:19;;;;;;;0.40;0.40;;;27.10;99.90;;;;;;5069428;28;20071;-58
2021/06/14 11:19:49;;;;;;;0.50;0.50;;;27.20;99.90;;;;;;5071725;28;20522;-59
2021/06/14 11:22:18;;;;;;;0.50;0.50;;;27.30;99.90;;;;;;5074610;28;20025;-57
2021/06/14 11:24:45;;;;;;;0.90;0.90;;;27.50;99.90;;;;;;5064858;28;20020;-57
2021/06/14 11:27:13;;;;;;;1.05;0.70;;;27.70;99.90;;;;;;5064035;28;20360;-58
2021/06/14 11:29:44;;;;;;;0.68;0.68;;;27.90;99.90;;;;;;5064517;28;20112;-61
2021/06/14 11:32:15;;;;;;;0.55;0.50;;;28.00;99.90;;;;;;5081267;28;20032;-57
2021/06/14 11:34:43;;;;;;;0.60;0.60;;;28.00;99.90;;;;;;5084318;28;20032;-57
2021/06/14 11:37:09;;;;;;;0.70;0.70;;;28.10;99.90;;;;;;5084483;28;20047;-58
2021/06/14 11:39:35;;;;;;;0.70;0.70;;;28.20;99.90;;;;;;5088381;28;20031;-57
2021/06/14 11:42:20;;;;;;;0.73;0.60;;;28.30;99.90;;;;;;5083720;28;20034;-58
2021/06/14 11:44:54;;;;;;;1.27;0.60;;;28.50;99.90;;;;;;5083432;28;20052;-57
2021/06/14 11:47:22;;;;;;;;;;;28.50;99.90;;;;;;5084832;28;20459;-57
2021/06/14 11:49:50;;;;;;;0.70;0.70;;;28.70;99.90;;;;;;5070182;28;19952;-57
2021/06/14 11:52:31;;;;;;;0.70;0.70;;;28.80;99.90;;;;;;5068107;28;20035;-57
2021/06/14 11:54:58;;;;;;;0.50;0.50;;;28.90;99.90;;;;;;5068337;28;20028;-58
2021/06/14 11:57:32;;;;;;;0.63;0.50;;;29.00;99.90;;;;;;5085315;28;20069;-57
2021/06/14 11:59:59;;;;;;;0.50;0.50;;;29.30;99.90;;;;;;5088198;28;20035;-58
2021/06/14 12:02:27;;;;;;;0.80;0.80;;;29.50;99.90;;;;;;5088432;28;20050;-57
2021/06/14 12:04:55;;;;;;;0.95;0.95;;;29.20;99.90;;;;;;5088171;28;20504;-60
2021/06/14 12:07:32;;;;;;;0.80;0.80;;;29.40;99.90;;;;;;5088678;28;20024;-59
2021/06/14 12:10:16;;;;;;;0.70;0.70;;;29.70;99.90;;;;;;5087835;28;20032;-59
2021/06/14 12:12:47;;;;;;;0.63;0.63;;;29.90;99.90;;;;;;5087676;28;20035;-59
2021/06/14 12:15:13;;;;;;;0.70;0.70;;;30.10;99.90;;;;;;5086228;28;20027;-63
2021/06/14 12:17:43;;;;;;;0.60;0.60;;;30.20;99.90;;;;;;5067835;28;20093;-59
2021/06/14 12:20:09;;;;;;;0.65;0.60;;;30.30;99.90;;;;;;5067854;28;20048;-59
2021/06/14 12:22:36;;;;;;;0.60;0.60;;;30.60;99.90;;;;;;5067758;28;20090;-59
2021/06/14 12:25:12;;;;;;;0.77;0.77;;;30.50;99.90;;;;;;5067424;28;20097;-59
2021/06/14 12:27:39;;;;;;;1.25;0.70;;;30.70;99.90;;;;;;5067324;28;20236;-59
2021/06/14 12:30:08;;;;;;;0.52;0.52;;;30.80;99.90;;;;;;5067654;28;20066;-60
2021/06/14 12:32:34;;;;;;;0.82;0.82;;;31.00;99.90;;;;;;5067488;28;20047;-60
2021/06/14 12:35:03;;;;;;;0.60;0.60;;;31.20;99.90;;;;;;5067168;28;20035;-60
2021/06/14 12:37:29;;;;;;;0.45;0.45;;;31.30;99.90;;;;;;5067596;28;20040;-60
2021/06/14 12:40:09;;;;;;;0.65;0.65;;;31.40;99.90;;;;;;5067433;28;20033;-59
2021/06/14 12:42:36;;;;;;;1.05;0.85;;;31.50;99.90;;;;;;5066970;28;20072;-59
2021/06/14 12:45:12;;;;;;;0.55;0.55;;;31.60;99.90;;;;;;5067034;28;20063;-59
2021/06/14 12:47:43;;;;;;;0.70;0.70;;;31.70;99.90;;;;;;5067313;28;20043;-59
2021/06/14 12:50:14;;;;;;;1.42;1.00;;;31.30;99.80;;;;;;5067364;28;20043;-59
2021/06/14 12:52:40;;;;;;;1.02;0.90;;;31.10;99.70;;;;;;5065609;28;20090;-59